Heat Index [SAI AWOS/ASOS Display]_________FAA Disclaimer: "Not for use in aviation at this time______________" Untitled Document
Hamilton Municipal Airport NY (VGC)
170
03:47
17/10/24
12
20
N/A
29.85
N/A
1134
67(F), 19(C)
55(F), 13(C)
67 F
68%
SCT031 SCT037
10
N/A
N/A
N/A
03:47 zulu Wind 170 at 12 Knots, Gusting 20 Knots, Altimeter 29.85
METAR KVGC 240347Z AUTO 17012G20KT 10SM SCT031 SCT037 19/13 A2985 A02
METAR:
FAA Disclaimer--Advisory Use ONLY, not for flight info--
INFO:
Wind Direction:
Wind Speed:
Wind Gust:
Wind Variable:
Altimeter:
Dens Alt:
Elev:
Temp:
Dwpt:
Wind Chill
Rel Humidity:
Ceiling:
Visibility:
Prsnt Wea:
PCPN:
Remarks:
How to read the WebPage